Estación de Lontue

Ultimos registro cada 15 minutos 27
Estación Fecha / Hora Temperatura Humedad Lluvia Velocidad Dirección Radiación Presion
27 Lontue 08-05-2026 06:30 2,2 91,2 0 0 62 0,6 997,3
26 Lontue 08-05-2026 06:15 2,4 91,1 0 0 62 0,6 997,2
25 Lontue 08-05-2026 06:00 2,7 90,8 0 0 62 0,6 997,3
24 Lontue 08-05-2026 05:45 3,5 90,6 0 0 112 0,6 997,5
23 Lontue 08-05-2026 05:30 4,1 90,7 0 1,1 112 0,6 997,5
22 Lontue 08-05-2026 05:15 4 91 0 0,8 121 0,6 997,4
21 Lontue 08-05-2026 05:00 3,7 90,6 0 0,4 124 0,6 997,5
20 Lontue 08-05-2026 04:45 3,8 90 0 0,4 129 0,6 997,3
19 Lontue 08-05-2026 04:30 4 89,5 0 0 135 0,6 997,2
18 Lontue 08-05-2026 04:15 4,5 89,2 0 0 135 0,6 997,4
17 Lontue 08-05-2026 04:00 4,7 88,5 0 0 135 0,6 997,3
16 Lontue 08-05-2026 03:45 4,8 89,1 0 0,8 124 0,6 997,8
15 Lontue 08-05-2026 03:30 4,4 89 0 0,4 122 0,6 998
14 Lontue 08-05-2026 03:15 4,6 89 0 0,8 122 0,6 998,3
13 Lontue 08-05-2026 03:00 4,8 88,9 0 0,4 122 0,6 998,2
12 Lontue 08-05-2026 02:45 4,6 89,5 0 0 122 0,6 998,1
11 Lontue 08-05-2026 02:30 4,6 88,4 0 0 122 0,6 998,4
10 Lontue 08-05-2026 02:15 5 87,4 0 0,4 122 0,6 998,5
9 Lontue 08-05-2026 02:00 5,4 87,3 0 0,8 122 0,6 998,5
8 Lontue 08-05-2026 01:45 5,5 86,2 0 1,1 124 0,6 998,5
7 Lontue 08-05-2026 01:30 5,6 87,5 0 0,4 124 0,6 998,7
6 Lontue 08-05-2026 01:15 5,8 86,6 0 0,4 135 0,6 998,8
5 Lontue 08-05-2026 01:00 6,1 86,7 0 0 136 0,6 998,9
4 Lontue 08-05-2026 00:45 5,8 87,1 0 0 136 0,6 999
3 Lontue 08-05-2026 00:30 6,3 84,8 0 0 136 0,6 999,1
2 Lontue 08-05-2026 00:15 7 82,1 0 0 138 0,6 998,9
1 Lontue 08-05-2026 00:00 7,8 79,5 0 0,4 147 0,6 999,4